Time;durP1;ratioP1;P1;durP2;ratioP2;P2;SDS_P1;SDS_P2;PMS_P1;PMS_P2;Temp;Humidity;BMP_temperature;BMP_pressure;BME280_temperature;BME280_humidity;BME280_pressure;Samples;Min_cycle;Max_cycle;Signal;HPM_P1;HPM_P2
2023/07/07 00:00:52;;;;;;;7.30;6.80;;;;;;;15.17;100.00;101972.84;4994977;28;20466;-41
2023/07/07 00:03:21;;;;;;;6.97;6.57;;;;;;;15.14;100.00;101971.38;4995522;28;20445;-43
2023/07/07 00:05:49;;;;;;;7.13;6.73;;;;;;;15.10;100.00;101971.97;4995657;28;20465;-41
2023/07/07 00:08:17;;;;;;;7.80;7.07;;;;;;;15.02;100.00;101972.97;4995567;28;20436;-42
2023/07/07 00:10:44;;;;;;;6.60;6.20;;;;;;;14.94;100.00;101968.56;4994862;28;20472;-42
2023/07/07 00:13:14;;;;;;;8.17;7.70;;;;;;;14.86;100.00;101967.88;4995107;28;20458;-42
2023/07/07 00:15:44;;;;;;;7.33;7.03;;;;;;;14.78;100.00;101968.03;4995494;28;20438;-41
2023/07/07 00:18:13;;;;;;;7.47;6.97;;;;;;;14.69;100.00;101972.72;4995499;28;20422;-44
2023/07/07 00:20:43;;;;;;;6.73;6.33;;;;;;;14.60;100.00;101973.88;4994624;28;21003;-42
2023/07/07 00:23:12;;;;;;;8.30;7.60;;;;;;;14.52;100.00;101975.81;4995123;28;20438;-45
2023/07/07 00:25:40;;;;;;;13.63;7.20;;;;;;;14.45;100.00;101974.94;4995323;28;20433;-44
2023/07/07 00:28:07;;;;;;;7.60;7.00;;;;;;;14.37;100.00;101981.25;4995203;28;20445;-43
2023/07/07 00:30:35;;;;;;;8.50;7.80;;;;;;;14.30;100.00;101980.34;4994668;28;20564;-44
2023/07/07 00:33:03;;;;;;;7.20;6.80;;;;;;;14.20;100.00;101975.28;4994950;28;20469;-41
2023/07/07 00:35:30;;;;;;;8.57;7.93;;;;;;;14.14;100.00;101972.53;4994999;28;20442;-41
2023/07/07 00:37:59;;;;;;;7.63;7.10;;;;;;;14.06;100.00;101983.38;4995027;28;20438;-45
2023/07/07 00:40:27;;;;;;;7.80;7.30;;;;;;;13.99;100.00;101975.25;4994355;28;20484;-42
2023/07/07 00:42:55;;;;;;;7.90;7.40;;;;;;;13.94;100.00;101976.84;4994414;28;21007;-41
2023/07/07 00:45:22;;;;;;;8.20;7.53;;;;;;;13.86;100.00;101975.94;4994823;28;20433;-44
2023/07/07 00:47:59;;;;;;;7.83;7.47;;;;;;;13.80;100.00;101979.34;4994809;28;20492;-44
2023/07/07 00:50:30;;;;;;;8.47;7.70;;;;;;;13.75;100.00;101979.09;4994461;28;20470;-49
2023/07/07 00:52:58;;;;;;;7.93;7.40;;;;;;;13.67;100.00;101981.88;4994156;28;20509;-50
2023/07/07 00:55:31;;;;;;;8.73;7.90;;;;;;;13.62;100.00;101978.91;4993728;28;20449;-47
2023/07/07 00:58:02;;;;;;;8.30;7.80;;;;;;;13.58;100.00;101982.16;4994766;28;20434;-41
2023/07/07 01:00:31;;;;;;;8.27;7.67;;;;;;;13.55;100.00;101982.53;4994082;28;20589;-42
2023/07/07 01:02:58;;;;;;;8.77;8.20;;;;;;;13.53;100.00;101981.91;4994250;28;20488;-42
2023/07/07 01:05:30;;;;;;;9.03;8.43;;;;;;;13.48;100.00;101987.81;4994403;28;20473;-42
2023/07/07 01:08:01;;;;;;;8.27;7.60;;;;;;;13.46;100.00;101989.84;4994843;28;20430;-42
2023/07/07 01:10:31;;;;;;;8.07;7.63;;;;;;;13.44;100.00;101989.19;4993914;28;20868;-43
2023/07/07 01:12:59;;;;;;;15.30;8.70;;;;;;;13.42;100.00;101985.88;4994115;28;20567;-41
2023/07/07 01:15:31;;;;;;;8.70;8.20;;;;;;;13.38;100.00;101981.88;4994294;28;20804;-42
2023/07/07 01:18:13;;;;;;;9.90;9.40;;;;;;;13.32;100.00;101978.09;4994235;28;20434;-42
2023/07/07 01:21:01;;;;;;;8.60;8.10;;;;;;;13.28;100.00;101984.03;4993712;28;20548;-42
2023/07/07 01:24:02;;;;;;;10.20;9.30;;;;;;;13.22;100.00;101980.25;4993981;28;20465;-43
2023/07/07 01:27:01;;;;;;;10.30;9.60;;;;;;;13.16;100.00;101980.97;4993920;28;20852;-43
2023/07/07 01:29:57;;;;;;;9.37;8.50;;;;;;;13.11;100.00;101985.22;4993687;28;20458;-41
2023/07/07 01:32:30;;;;;;;8.30;7.70;;;;;;;13.08;100.00;101988.25;4984460;28;20477;-44
2023/07/07 01:35:00;;;;;;;9.53;8.63;;;;;;;13.04;100.00;101990.44;4994134;28;20797;-41
2023/07/07 01:37:27;;;;;;;10.27;9.47;;;;;;;13.04;100.00;101989.59;4994020;28;20438;-42
2023/07/07 01:39:56;;;;;;;10.63;9.70;;;;;;;13.04;100.00;101993.09;4993368;28;20485;-41
2023/07/07 01:42:33;;;;;;;10.10;9.33;;;;;;;13.05;100.00;102000.09;4993533;28;20430;-42
2023/07/07 01:45:09;;;;;;;10.60;9.90;;;;;;;13.04;100.00;101994.94;4993536;28;20484;-46
2023/07/07 01:47:40;;;;;;;10.07;9.37;;;;;;;13.01;100.00;101998.84;4993700;28;20434;-45
2023/07/07 01:50:13;;;;;;;10.37;9.47;;;;;;;12.99;100.00;101992.81;4992963;28;20470;-47
2023/07/07 01:52:47;;;;;;;10.97;10.37;;;;;;;12.96;100.00;101990.50;4993331;28;20478;-43
2023/07/07 01:55:20;;;;;;;10.97;10.30;;;;;;;12.93;100.00;101992.72;4993664;28;20422;-42
2023/07/07 01:57:51;;;;;;;10.57;10.00;;;;;;;12.87;100.00;102002.31;4993451;28;20517;-41
2023/07/07 02:00:20;;;;;;;11.63;10.60;;;;;;;12.83;100.00;101998.31;4993218;28;20497;-44
2023/07/07 02:02:49;;;;;;;11.30;10.70;;;;;;;12.80;100.00;101995.16;4993294;28;20430;-48
2023/07/07 02:05:17;;;;;;;11.00;10.20;;;;;;;12.75;100.00;101995.72;4993029;28;20438;-41
2023/07/07 02:07:45;;;;;;;9.80;9.27;;;;;;;12.74;100.00;101992.22;4993294;28;20500;-47
2023/07/07 02:10:13;;;;;;;10.77;10.07;;;;;;;12.70;100.00;101988.22;4992798;28;20462;-43
2023/07/07 02:12:41;;;;;;;10.13;9.63;;;;;;;12.68;100.00;101994.78;4992844;28;21011;-41
2023/07/07 02:15:09;;;;;;;10.33;9.73;;;;;;;12.64;100.00;101996.13;4993067;28;20448;-42
2023/07/07 02:17:37;;;;;;;11.43;10.43;;;;;;;12.60;100.00;101994.84;4993088;28;20477;-41
2023/07/07 02:20:08;;;;;;;10.40;9.80;;;;;;;12.58;100.00;101995.00;4992576;28;20503;-41
2023/07/07 02:22:37;;;;;;;11.47;10.77;;;;;;;12.53;100.00;101994.72;4992800;28;20418;-40
2023/07/07 02:25:05;;;;;;;10.77;10.17;;;;;;;12.51;100.00;101999.44;4993181;28;20473;-41
2023/07/07 02:27:33;;;;;;;11.30;10.43;;;;;;;12.50;100.00;101988.91;4992952;28;20525;-43
2023/07/07 02:30:01;;;;;;;11.40;10.70;;;;;;;12.47;100.00;101983.91;4992398;28;20466;-42
2023/07/07 02:32:28;;;;;;;12.10;11.40;;;;;;;12.44;100.00;101990.44;4992623;28;20920;-45
2023/07/07 02:34:59;;;;;;;12.33;11.63;;;;;;;12.42;100.00;101989.81;4992792;28;20445;-41
2023/07/07 02:37:28;;;;;;;10.97;10.17;;;;;;;12.41;100.00;101992.63;4992838;28;20422;-42
2023/07/07 02:39:56;;;;;;;10.93;10.23;;;;;;;12.39;100.00;101992.00;4992545;28;20477;-43
2023/07/07 02:42:24;;;;;;;11.67;11.07;;;;;;;12.38;100.00;101995.66;4992670;28;20465;-41
2023/07/07 02:44:52;;;;;;;11.23;10.53;;;;;;;12.39;100.00;101992.00;4992621;28;20438;-44
2023/07/07 02:47:20;;;;;;;11.70;11.00;;;;;;;12.39;100.00;101994.66;4992837;28;20940;-44
2023/07/07 02:49:47;;;;;;;11.27;10.57;;;;;;;12.37;100.00;101988.63;4992489;28;20516;-42
2023/07/07 02:52:15;;;;;;;11.30;10.70;;;;;;;12.37;100.00;101981.47;4992439;28;20855;-41
2023/07/07 02:54:44;;;;;;;12.20;11.30;;;;;;;12.37;100.00;101994.81;4991476;28;20480;-44
2023/07/07 02:57:12;;;;;;;11.33;10.50;;;;;;;12.37;100.00;101992.16;4992474;28;20962;-44
2023/07/07 02:59:39;;;;;;;11.47;10.77;;;;;;;12.38;100.00;101999.19;4992081;28;20457;-42
2023/07/07 03:02:07;;;;;;;10.57;10.07;;;;;;;12.39;100.00;101995.50;4992079;28;20456;-42
2023/07/07 03:04:35;;;;;;;10.73;10.13;;;;;;;12.42;100.00;101992.47;4992362;28;20492;-41
2023/07/07 03:07:03;;;;;;;11.23;10.73;;;;;;;12.41;100.00;102008.69;4992567;28;20525;-45
2023/07/07 03:09:30;;;;;;;12.20;11.10;;;;;;;12.44;100.00;102001.16;4992191;28;20549;-44
2023/07/07 03:11:59;;;;;;;11.67;10.97;;;;;;;12.46;100.00;102000.94;4992095;28;20956;-42
2023/07/07 03:14:27;;;;;;;10.80;10.20;;;;;;;12.51;100.00;101991.41;4992242;28;20480;-41
2023/07/07 03:16:57;;;;;;;11.70;11.00;;;;;;;12.58;100.00;101997.69;4992388;28;20999;-40
2023/07/07 03:19:25;;;;;;;10.53;9.87;;;;;;;12.62;100.00;101990.97;4996099;28;20465;-43
2023/07/07 03:21:54;;;;;;;10.27;9.70;;;;;;;12.63;100.00;101995.28;4996294;28;20453;-40
2023/07/07 03:24:22;;;;;;;10.80;10.20;;;;;;;12.68;100.00;101989.41;4996400;28;20952;-40
2023/07/07 03:26:49;;;;;;;10.47;9.90;;;;;;;12.75;100.00;101995.72;4996174;28;20448;-41
2023/07/07 03:29:18;;;;;;;10.47;9.67;;;;;;;12.83;100.00;101994.81;4995763;28;20429;-42
2023/07/07 03:31:46;;;;;;;9.30;8.80;;;;;;;13.11;100.00;102006.66;4995786;28;20453;-44
2023/07/07 03:34:14;;;;;;;10.60;9.90;;;;;;;13.58;100.00;102001.78;4996265;28;20899;-44
2023/07/07 03:36:42;;;;;;;10.03;9.43;;;;;;;13.72;100.00;102000.91;4996031;28;20430;-42
2023/07/07 03:39:09;;;;;;;9.93;9.43;;;;;;;13.79;100.00;101998.31;4995538;28;20430;-42
2023/07/07 03:41:37;;;;;;;9.50;9.00;;;;;;;13.83;100.00;102004.97;4995690;28;20489;-44
2023/07/07 03:44:05;;;;;;;8.07;7.67;;;;;;;13.92;100.00;102003.84;4996058;28;20437;-42
2023/07/07 03:46:34;;;;;;;9.03;8.63;;;;;;;13.95;100.00;101999.97;4994779;28;20917;-41
2023/07/07 03:49:02;;;;;;;8.97;8.57;;;;;;;14.02;100.00;102000.88;4996013;28;20470;-41
2023/07/07 03:51:34;;;;;;;9.30;8.80;;;;;;;14.07;100.00;102001.97;4995341;28;20448;-41
2023/07/07 03:54:03;;;;;;;8.90;8.50;;;;;;;14.10;100.00;101998.06;4995853;28;20568;-42
2023/07/07 03:56:31;;;;;;;8.93;8.50;;;;;;;14.14;100.00;102010.09;4996015;28;20883;-42
2023/07/07 03:58:58;;;;;;;9.23;8.50;;;;;;;14.19;100.00;102002.28;4995835;28;20425;-41
2023/07/07 04:01:26;;;;;;;8.77;8.27;;;;;;;14.39;100.00;102008.75;4995042;28;20536;-42
2023/07/07 04:03:56;;;;;;;9.90;9.10;;;;;;;14.55;100.00;102007.66;4995648;28;20426;-41
2023/07/07 04:06:25;;;;;;;9.57;9.07;;;;;;;14.70;100.00;102003.03;4995568;28;20434;-42
2023/07/07 04:08:52;;;;;;;9.03;8.43;;;;;;;14.79;100.00;102000.03;4995347;28;20429;-47
2023/07/07 04:11:21;;;;;;;8.90;8.50;;;;;;;14.82;100.00;102010.41;4995076;28;20474;-44
2023/07/07 04:13:51;;;;;;;9.37;8.57;;;;;;;14.84;100.00;102013.69;4995217;28;21018;-42
2023/07/07 04:16:20;;;;;;;9.40;8.77;;;;;;;14.90;100.00;102015.63;4995540;28;20438;-44
2023/07/07 04:18:50;;;;;;;8.87;8.37;;;;;;;14.96;100.00;102006.78;4995449;28;20857;-41
2023/07/07 04:21:21;;;;;;;9.50;8.87;;;;;;;15.18;100.00;102021.00;4994757;28;20466;-44
2023/07/07 04:23:52;;;;;;;9.67;8.97;;;;;;;15.38;100.00;102013.09;4995241;28;20425;-44
2023/07/07 04:26:21;;;;;;;9.30;8.80;;;;;;;15.55;100.00;102022.53;4995316;28;20430;-42
2023/07/07 04:28:52;;;;;;;8.70;8.30;;;;;;;15.74;100.00;102007.53;4994781;28;20441;-42
2023/07/07 04:31:23;;;;;;;8.20;7.80;;;;;;;16.16;100.00;102014.53;4994575;28;20875;-44
2023/07/07 04:33:51;;;;;;;8.93;8.43;;;;;;;17.41;100.00;102004.69;4994948;28;20468;-43
2023/07/07 04:36:20;;;;;;;9.03;8.30;;;;;;;18.69;100.00;102010.78;4995266;28;20488;-43
2023/07/07 04:38:49;;;;;;;7.90;7.50;;;;;;;19.21;100.00;102004.06;4995238;28;20429;-42
2023/07/07 04:41:18;;;;;;;8.20;7.70;;;;;;;18.98;100.00;102006.56;4994341;28;20991;-42
2023/07/07 04:43:48;;;;;;;9.40;8.53;;;;;;;18.87;100.00;102020.81;4994903;28;20986;-42
2023/07/07 04:46:18;;;;;;;7.00;6.53;;;;;;;18.72;100.00;102017.59;4994711;28;20822;-43
2023/07/07 04:48:46;;;;;;;8.20;7.70;;;;;;;18.59;100.00;102023.09;4995061;28;20430;-42
2023/07/07 04:51:14;;;;;;;8.43;7.67;;;;;;;18.43;100.00;102024.41;4994174;28;20575;-42
2023/07/07 04:53:44;;;;;;;8.73;8.03;;;;;;;18.33;100.00;102025.94;4994494;28;20473;-47
2023/07/07 04:56:14;;;;;;;7.80;7.40;;;;;;;18.25;100.00;102029.69;4994733;28;20452;-41
2023/07/07 04:58:43;;;;;;;9.10;8.40;;;;;;;18.28;100.00;102023.06;4994634;28;20425;-42
2023/07/07 05:01:15;;;;;;;9.50;8.87;;;;;;;18.18;100.00;102034.31;4994049;28;20501;-42
2023/07/07 05:03:45;;;;;;;8.40;7.80;;;;;;;18.11;100.00;102031.66;4994820;28;20824;-43
2023/07/07 05:06:13;;;;;;;8.70;8.10;;;;;;;18.07;100.00;102033.09;4994645;28;20460;-41
2023/07/07 05:08:44;;;;;;;9.27;8.77;;;;;;;18.05;100.00;102029.81;4994607;28;20438;-42
2023/07/07 05:11:12;;;;;;;9.10;8.57;;;;;;;18.07;100.00;102029.59;4993834;28;20869;-42
2023/07/07 05:13:41;;;;;;;9.10;8.40;;;;;;;18.11;100.00;102037.03;4993907;28;20473;-42
2023/07/07 05:16:10;;;;;;;9.60;9.07;;;;;;;18.15;100.00;102040.97;4994508;28;20853;-44
2023/07/07 05:18:39;;;;;;;8.93;8.23;;;;;;;18.30;100.00;102038.00;4994508;28;20948;-42
2023/07/07 05:21:08;;;;;;;8.93;8.37;;;;;;;18.45;100.00;102046.63;4993722;28;20473;-41
2023/07/07 05:23:37;;;;;;;9.17;8.33;;;;;;;18.45;100.00;102043.09;4994028;28;20433;-43
2023/07/07 05:26:06;;;;;;;9.67;8.87;;;;;;;18.62;100.00;102044.25;4994120;28;20568;-43
2023/07/07 05:28:34;;;;;;;9.70;8.23;;;;;;;18.76;100.00;102048.53;4993955;28;20448;-42
2023/07/07 05:31:02;;;;;;;10.03;9.30;;;;;;;19.09;100.00;102042.84;4993535;28;20477;-42
2023/07/07 05:33:31;;;;;;;9.00;8.43;;;;;;;19.27;100.00;102045.59;4993744;28;20430;-44
2023/07/07 05:36:04;;;;;;;9.20;8.60;;;;;;;19.60;100.00;102042.59;4993933;28;20434;-42
2023/07/07 05:38:32;;;;;;;9.30;8.60;;;;;;;19.93;100.00;102040.34;4994040;28;20422;-41
2023/07/07 05:40:59;;;;;;;10.77;10.07;;;;;;;20.00;100.00;102043.81;4992755;28;20465;-42
2023/07/07 05:43:29;;;;;;;9.87;9.17;;;;;;;20.20;100.00;102041.69;4993443;28;20529;-42
2023/07/07 05:45:57;;;;;;;10.03;9.23;;;;;;;20.41;100.00;102043.91;4993461;28;20468;-42
2023/07/07 05:48:26;;;;;;;9.20;8.60;;;;;;;21.72;100.00;102043.59;4993840;28;20808;-42
2023/07/07 05:50:56;;;;;;;8.70;7.90;;;;;;;21.92;100.00;102035.91;4993070;28;20552;-42
2023/07/07 05:53:27;;;;;;;9.07;8.50;;;;;;;22.19;100.00;102047.03;4993474;28;20440;-41
2023/07/07 05:56:06;;;;;;;9.53;8.83;;;;;;;22.91;100.00;102045.41;4993609;28;20872;-42
2023/07/07 05:58:35;;;;;;;8.93;8.43;;;;;;;23.14;86.45;102047.16;4993463;28;21005;-43
2023/07/07 06:01:03;;;;;;;9.33;8.30;;;;;;;23.17;93.78;102045.81;4992894;28;20496;-42
2023/07/07 06:03:31;;;;;;;7.33;6.93;;;;;;;24.27;97.16;102040.25;4993125;28;20433;-43
2023/07/07 06:05:59;;;;;;;8.93;8.07;;;;;;;24.53;78.30;102043.00;4993529;28;20468;-42
2023/07/07 06:08:28;;;;;;;8.00;7.20;;;;;;;25.24;81.34;102047.16;4993440;28;20738;-45
2023/07/07 06:10:56;;;;;;;6.70;6.30;;;;;;;26.18;82.54;102038.94;4992739;28;20473;-42
2023/07/07 06:13:24;;;;;;;7.53;6.83;;;;;;;26.29;78.95;102046.09;4993135;28;20434;-42
2023/07/07 06:15:54;;;;;;;5.87;5.57;;;;;;;27.03;77.77;102045.63;4993042;28;20474;-41
2023/07/07 06:18:23;;;;;;;6.73;6.43;;;;;;;27.77;67.14;102047.69;4993404;28;20433;-42
2023/07/07 06:20:52;;;;;;;6.40;5.87;;;;;;;28.71;62.15;102050.22;4992143;28;20504;-42
2023/07/07 06:23:20;;;;;;;6.70;6.10;;;;;;;29.45;64.32;102049.84;4992929;28;20867;-43
2023/07/07 06:25:48;;;;;;;6.60;6.20;;;;;;;30.01;59.89;102054.72;4993096;28;20429;-41
2023/07/07 06:28:16;;;;;;;5.60;5.30;;;;;;;30.35;55.15;102055.31;4992992;28;20445;-40
2023/07/07 06:30:44;;;;;;;7.10;6.40;;;;;;;30.17;54.92;102064.38;4992341;28;20337;-40
2023/07/07 06:33:13;;;;;;;7.03;6.33;;;;;;;30.35;55.16;102052.56;4992899;28;20206;-41
2023/07/07 06:35:43;;;;;;;6.20;5.70;;;;;;;30.85;54.27;102059.28;4993119;28;20313;-43
2023/07/07 06:38:10;;;;;;;6.87;6.40;;;;;;;31.28;51.62;102065.41;4992941;28;20656;-42
2023/07/07 06:40:38;;;;;;;5.20;4.90;;;;;;;31.89;51.98;102058.75;4992485;28;20664;-48
2023/07/07 06:43:06;;;;;;;4.97;4.70;;;;;;;32.09;50.55;102056.38;4992672;28;20233;-43
2023/07/07 06:45:36;;;;;;;4.82;4.45;;;;;;;32.01;47.83;102059.84;4992889;28;20221;-42
2023/07/07 06:48:05;;;;;;;5.33;5.03;;;;;;;31.91;43.72;102062.00;4992678;28;20244;-45
2023/07/07 06:50:36;;;;;;;6.25;5.03;;;;;;;32.39;47.11;102063.16;4992238;28;20230;-43
2023/07/07 06:53:05;;;;;;;5.03;4.60;;;;;;;32.44;44.26;102065.00;4992457;28;20201;-43
2023/07/07 06:55:32;;;;;;;5.57;5.03;;;;;;;32.29;45.45;102069.72;4992406;28;20318;-45
2023/07/07 06:58:00;;;;;;;5.57;5.13;;;;;;;32.45;43.06;102077.66;4992703;28;20198;-40
2023/07/07 07:00:28;;;;;;;4.90;4.40;;;;;;;32.37;43.18;102081.16;4992166;28;20257;-46
2023/07/07 07:02:56;;;;;;;5.28;4.10;;;;;;;32.75;41.90;102072.28;4992419;28;20201;-43
2023/07/07 07:05:23;;;;;;;4.97;4.57;;;;;;;32.92;40.77;102074.31;4992435;28;20244;-43
2023/07/07 07:07:52;;;;;;;4.68;4.20;;;;;;;32.78;39.46;102082.69;4992398;28;20237;-42
2023/07/07 07:10:20;;;;;;;5.50;5.10;;;;;;;32.60;39.69;102080.09;4991837;28;20296;-43
2023/07/07 07:12:48;;;;;;;4.40;4.05;;;;;;;32.82;40.96;102078.19;4992352;28;20226;-40
2023/07/07 07:15:16;;;;;;;5.43;4.90;;;;;;;32.75;40.45;102080.56;4992296;28;20596;-43
2023/07/07 07:17:44;;;;;;;5.03;4.50;;;;;;;32.93;41.39;102080.66;4992466;28;20249;-42
2023/07/07 07:20:12;;;;;;;4.43;4.20;;;;;;;32.90;37.88;102087.66;4991882;28;20232;-44
2023/07/07 07:22:40;;;;;;;4.20;4.00;;;;;;;32.96;41.19;102083.63;4992069;28;20198;-43
2023/07/07 07:25:10;;;;;;;5.35;4.90;;;;;;;32.70;40.99;102074.34;4992339;28;20673;-42
2023/07/07 07:27:38;;;;;;;5.10;4.47;;;;;;;32.22;41.10;102080.41;4992035;28;20296;-43
2023/07/07 07:30:08;;;;;;;4.95;4.50;;;;;;;32.46;40.44;102082.88;4991937;28;20226;-42
2023/07/07 07:32:36;;;;;;;6.43;5.82;;;;;;;32.79;39.49;102076.03;4992050;28;20225;-40
2023/07/07 07:35:04;;;;;;;5.05;4.68;;;;;;;32.87;38.13;102074.47;4992072;28;20222;-43
2023/07/07 07:37:32;;;;;;;4.88;4.47;;;;;;;33.22;40.07;102075.50;4992440;28;20198;-41
2023/07/07 07:40:00;;;;;;;4.80;4.40;;;;;;;33.43;37.81;102076.59;4991534;28;20643;-43
2023/07/07 07:42:29;;;;;;;4.55;4.25;;;;;;;33.73;39.84;102070.25;4991868;28;20265;-47
2023/07/07 07:44:57;;;;;;;5.03;4.82;;;;;;;33.57;38.58;102070.97;4992266;28;20198;-41
2023/07/07 07:47:25;;;;;;;5.50;5.10;;;;;;;33.21;38.74;102074.72;4992087;28;20201;-45
2023/07/07 07:49:52;;;;;;;4.90;4.60;;;;;;;32.46;39.67;102080.13;4991713;28;20226;-42
2023/07/07 07:52:21;;;;;;;5.15;4.82;;;;;;;32.09;39.67;102083.16;4992036;28;20277;-40
2023/07/07 07:54:50;;;;;;;4.85;4.60;;;;;;;31.74;38.86;102090.22;4991964;28;20549;-44
2023/07/07 07:57:18;;;;;;;4.88;4.47;;;;;;;31.97;39.89;102085.59;4992173;28;20207;-45
2023/07/07 07:59:47;;;;;;;6.20;5.80;;;;;;;32.03;39.50;102079.69;4991746;28;20240;-41
2023/07/07 08:02:14;;;;;;;4.97;4.68;;;;;;;31.84;40.90;102087.22;4991666;28;20317;-42
2023/07/07 08:04:42;;;;;;;6.30;5.33;;;;;;;31.24;40.98;102086.47;4995173;28;20225;-43
2023/07/07 08:07:10;;;;;;;4.87;4.57;;;;;;;31.20;40.69;102099.19;4995742;28;20277;-41
2023/07/07 08:09:38;;;;;;;6.10;5.60;;;;;;;30.96;40.51;102093.81;4995069;28;20230;-43
2023/07/07 08:12:07;;;;;;;6.77;6.07;;;;;;;30.46;40.92;102100.91;4995253;28;20301;-47
2023/07/07 08:14:35;;;;;;;6.00;5.40;;;;;;;30.18;41.74;102097.13;4995270;28;20202;-44
2023/07/07 08:17:08;;;;;;;6.13;5.63;;;;;;;29.84;42.32;102101.94;4995545;28;20587;-44
2023/07/07 08:19:37;;;;;;;6.00;5.60;;;;;;;29.67;42.53;102098.81;4975673;28;20226;-42
2023/07/07 08:22:07;;;;;;;6.97;6.00;;;;;;;28.88;43.38;102111.03;4975645;28;20517;-44
2023/07/07 08:24:37;;;;;;;6.13;5.53;;;;;;;28.57;45.23;102115.09;4976105;28;20290;-44
2023/07/07 08:27:06;;;;;;;5.77;5.27;;;;;;;28.59;44.99;102118.34;4975593;28;20537;-42
2023/07/07 08:29:37;;;;;;;6.90;6.20;;;;;;;28.54;46.21;102115.66;4975403;28;20837;-42
2023/07/07 08:32:07;;;;;;;9.37;6.90;;;;;;;28.24;46.00;102113.88;4975579;28;20537;-47
2023/07/07 08:34:35;;;;;;;6.00;5.50;;;;;;;28.43;45.98;102120.34;4975815;28;20804;-45
2023/07/07 08:37:20;;;;;;;6.63;6.00;;;;;;;28.48;46.49;102112.13;4975659;28;20540;-46
2023/07/07 08:39:49;;;;;;;8.00;6.20;;;;;;;28.74;46.35;102118.28;4975078;28;20864;-47
2023/07/07 08:42:28;;;;;;;6.10;5.70;;;;;;;28.67;46.48;102123.28;4975372;28;20474;-45
2023/07/07 08:44:59;;;;;;;7.30;6.73;;;;;;;29.05;47.04;102119.72;4975609;28;20438;-47
2023/07/07 08:47:41;;;;;;;6.23;5.63;;;;;;;29.34;45.76;102116.19;4975489;28;20427;-48
2023/07/07 08:50:17;;;;;;;6.23;5.63;;;;;;;29.18;46.12;102120.16;4974260;28;20464;-44
2023/07/07 08:53:03;;;;;;;7.20;6.60;;;;;;;28.68;45.39;102129.59;4975270;28;20466;-45
2023/07/07 08:55:44;;;;;;;6.10;5.60;;;;;;;28.89;47.12;102122.84;4975250;28;20242;-48
2023/07/07 08:58:19;;;;;;;6.80;6.30;;;;;;;28.65;45.98;102124.66;4975244;28;20465;-44
2023/07/07 09:01:06;;;;;;;7.00;6.50;;;;;;;28.83;45.36;102107.50;4974562;28;20727;-48
2023/07/07 09:03:48;;;;;;;6.70;6.10;;;;;;;28.25;47.98;102117.47;4974992;28;20441;-43
2023/07/07 09:06:28;;;;;;;8.50;5.67;;;;;;;28.29;47.63;102124.00;4975200;28;20473;-45
2023/07/07 09:09:06;;;;;;;7.53;6.43;;;;;;;28.01;46.33;102134.53;4975005;28;20434;-41
2023/07/07 09:11:42;;;;;;;7.63;6.73;;;;;;;28.06;47.79;102124.66;4974946;28;20442;-41
2023/07/07 09:14:11;;;;;;;6.43;6.00;;;;;;;27.99;48.23;102131.22;4974768;28;20458;-45
2023/07/07 09:16:42;;;;;;;6.53;6.00;;;;;;;27.68;48.14;102137.91;4974127;28;20995;-46
2023/07/07 09:19:15;;;;;;;6.50;5.90;;;;;;;27.63;47.40;102140.63;4974402;28;20441;-43
2023/07/07 09:21:47;;;;;;;7.00;6.10;;;;;;;27.96;47.55;102137.28;4974677;28;20865;-45
2023/07/07 09:24:26;;;;;;;6.90;6.40;;;;;;;28.08;46.66;102134.25;4974963;28;20860;-45
2023/07/07 09:26:58;;;;;;;7.43;6.80;;;;;;;27.80;46.44;102141.16;4974796;28;20473;-42
2023/07/07 09:29:29;;;;;;;6.57;6.27;;;;;;;27.23;48.21;102149.69;4974289;28;20461;-44
2023/07/07 09:31:59;;;;;;;11.47;6.87;;;;;;;27.13;48.66;102144.22;4974486;28;20528;-45
2023/07/07 09:34:28;;;;;;;6.47;5.83;;;;;;;27.03;47.68;102141.44;4974544;28;20438;-43
2023/07/07 09:37:06;;;;;;;6.63;5.97;;;;;;;27.58;47.29;102139.81;4974431;28;21062;-43
2023/07/07 09:39:47;;;;;;;7.83;6.33;;;;;;;27.70;47.05;102141.19;4974095;28;20462;-43
2023/07/07 09:42:36;;;;;;;5.93;5.50;;;;;;;27.89;46.09;102136.75;4973997;28;20454;-43
2023/07/07 09:45:17;;;;;;;6.70;6.03;;;;;;;27.73;45.83;102139.81;4983985;28;20505;-44
2023/07/07 09:47:52;;;;;;;6.23;5.87;;;;;;;27.44;46.56;102151.38;4994210;28;20461;-47
2023/07/07 09:50:27;;;;;;;6.17;5.77;;;;;;;27.07;46.13;102141.72;4993324;28;20481;-42
2023/07/07 09:53:00;;;;;;;7.53;5.60;;;;;;;26.76;47.41;102149.88;4993720;28;20524;-42
2023/07/07 09:55:48;;;;;;;6.70;6.20;;;;;;;26.63;47.61;102150.41;4993503;28;20426;-43
2023/07/07 09:58:18;;;;;;;5.70;5.23;;;;;;;26.85;48.18;102140.06;4993074;28;20564;-45
2023/07/07 10:00:50;;;;;;;6.60;6.00;;;;;;;27.36;47.55;102140.09;4992969;28;20476;-44
2023/07/07 10:03:25;;;;;;;6.80;6.03;;;;;;;27.60;46.55;102135.72;4993239;28;20940;-44
2023/07/07 10:05:56;;;;;;;8.13;4.43;;;;;;;27.99;44.92;102133.97;4993344;28;20448;-45
2023/07/07 10:08:26;;;;;;;5.60;5.20;;;;;;;28.10;44.36;102129.31;4993494;28;20521;-44
2023/07/07 10:10:58;;;;;;;6.13;5.53;;;;;;;28.13;44.16;102130.66;4992683;28;21071;-48
2023/07/07 10:13:47;;;;;;;5.43;5.03;;;;;;;28.22;44.29;102129.81;4993249;28;20440;-47
2023/07/07 10:16:28;;;;;;;7.80;5.53;;;;;;;28.25;43.96;102126.50;4992936;28;20438;-44
2023/07/07 10:18:57;;;;;;;5.60;5.10;;;;;;;28.28;43.72;102134.19;4993338;28;20539;-45
2023/07/07 10:21:26;;;;;;;6.90;5.57;;;;;;;28.48;43.15;102136.00;4992348;28;20579;-45
2023/07/07 10:23:54;;;;;;;6.33;4.93;;;;;;;28.70;43.59;102133.72;4992882;28;20483;-44
2023/07/07 10:26:22;;;;;;;6.23;5.43;;;;;;;28.85;43.40;102130.84;4993006;28;20442;-50
2023/07/07 10:28:50;;;;;;;6.80;4.93;;;;;;;28.82;43.13;102130.59;4993013;28;20544;-45
2023/07/07 10:31:18;;;;;;;6.43;5.23;;;;;;;29.23;43.47;102129.22;4992332;28;20839;-47
2023/07/07 10:33:50;;;;;;;6.33;5.20;;;;;;;29.37;41.76;102126.59;4992806;28;20524;-47
2023/07/07 10:36:19;;;;;;;5.90;5.50;;;;;;;29.51;42.23;102114.63;4992638;28;21178;-48
2023/07/07 10:38:48;;;;;;;6.20;5.60;;;;;;;29.63;42.05;102123.31;4992963;28;20465;-46
2023/07/07 10:41:23;;;;;;;5.87;5.13;;;;;;;29.73;42.01;102121.56;4992354;28;20471;-44
2023/07/07 10:43:51;;;;;;;11.00;5.27;;;;;;;29.51;42.40;102124.84;4992865;28;20433;-49
2023/07/07 10:46:19;;;;;;;7.63;6.00;;;;;;;29.56;42.14;102128.34;4992723;28;20488;-49
2023/07/07 10:48:47;;;;;;;6.17;5.43;;;;;;;29.72;42.31;102131.75;4992737;28;20479;-51
2023/07/07 10:51:26;;;;;;;6.10;5.60;;;;;;;29.31;42.32;102125.00;4991966;28;20469;-43
2023/07/07 10:54:07;;;;;;;5.63;5.10;;;;;;;29.09;42.79;102126.25;4992516;28;20944;-47
2023/07/07 10:56:40;;;;;;;6.13;5.60;;;;;;;28.90;44.07;102125.31;4992645;28;20796;-45
2023/07/07 10:59:29;;;;;;;6.13;5.60;;;;;;;28.80;43.91;102128.13;4992059;28;20487;-44
2023/07/07 11:02:18;;;;;;;6.67;5.23;;;;;;;28.08;44.50;102139.72;4992421;28;20905;-44
2023/07/07 11:05:04;;;;;;;6.10;5.63;;;;;;;27.87;44.83;102129.88;4992562;28;20476;-46
2023/07/07 11:07:43;;;;;;;6.63;5.53;;;;;;;28.52;44.81;102134.34;4992387;28;20468;-45
2023/07/07 11:10:27;;;;;;;6.30;5.77;;;;;;;28.44;44.23;102137.66;4992035;28;21042;-46
2023/07/07 11:13:05;;;;;;;6.40;5.90;;;;;;;28.60;45.01;102135.66;4992391;28;20476;-47
2023/07/07 11:15:42;;;;;;;9.60;6.57;;;;;;;28.49;43.62;102132.94;4992329;28;20524;-52
2023/07/07 11:18:27;;;;;;;5.80;5.40;;;;;;;28.07;44.48;102138.09;4992436;28;20475;-46
2023/07/07 11:21:08;;;;;;;6.73;5.93;;;;;;;28.40;44.91;102140.16;4991916;28;20883;-45
2023/07/07 11:23:53;;;;;;;6.17;5.87;;;;;;;28.48;44.67;102134.06;4991013;28;20425;-45
2023/07/07 11:26:30;;;;;;;6.07;5.60;;;;;;;28.68;44.91;102138.63;4992350;28;20807;-44
2023/07/07 11:29:07;;;;;;;6.53;6.00;;;;;;;28.68;44.18;102140.56;4992278;28;20435;-51
2023/07/07 11:31:45;;;;;;;8.23;6.00;;;;;;;28.80;43.23;102147.34;4992075;28;20441;-51
2023/07/07 11:34:38;;;;;;;6.40;5.90;;;;;;;29.04;44.10;102141.97;4992215;28;20954;-48
2023/07/07 11:37:23;;;;;;;6.83;6.13;;;;;;;29.13;43.71;102144.91;4992423;28;20839;-48